createdAt,value
2022-08-22T00:02:32.975Z,17.65
2022-08-22T00:05:10.269Z,17.62
2022-08-22T00:07:49.233Z,17.61
2022-08-22T00:10:27.886Z,17.60
2022-08-22T00:13:14.564Z,17.56
2022-08-22T00:15:47.428Z,17.56
2022-08-22T00:18:24.900Z,17.57
2022-08-22T00:20:51.251Z,17.57
2022-08-22T00:23:44.779Z,17.52
2022-08-22T00:26:21.150Z,17.52
2022-08-22T00:28:55.897Z,17.49
2022-08-22T00:31:29.060Z,17.48
2022-08-22T00:34:10.151Z,17.48
2022-08-22T00:36:47.654Z,17.45
2022-08-22T00:39:26.870Z,17.42
2022-08-22T00:42:14.117Z,17.42
2022-08-22T00:44:59.954Z,17.45
2022-08-22T00:47:44.696Z,17.45
2022-08-22T00:50:34.350Z,17.40
2022-08-22T00:53:33.068Z,17.41
2022-08-22T00:56:24.529Z,17.36
2022-08-22T00:59:23.112Z,17.34
2022-08-22T01:02:03.617Z,17.28
2022-08-22T01:05:01.092Z,17.30
2022-08-22T01:07:54.235Z,17.29
2022-08-22T01:11:01.333Z,17.24
2022-08-22T01:14:00.292Z,17.21
2022-08-22T01:16:48.009Z,17.23
2022-08-22T01:19:25.318Z,17.15
2022-08-22T01:22:14.179Z,17.19
2022-08-22T01:25:18.321Z,17.17
2022-08-22T01:28:17.310Z,17.15
2022-08-22T01:31:12.087Z,17.10
2022-08-22T01:34:15.901Z,17.07
2022-08-22T01:37:10.693Z,17.12
2022-08-22T01:39:43.174Z,17.09
2022-08-22T01:42:40.382Z,17.06
2022-08-22T01:45:35.923Z,17.09
2022-08-22T01:48:10.773Z,17.06
2022-08-22T01:50:43.549Z,16.99
2022-08-22T01:53:22.732Z,17.01
2022-08-22T01:56:12.066Z,17.03
2022-08-22T01:58:45.872Z,17.05
2022-08-22T02:01:37.248Z,17.08
2022-08-22T02:04:14.353Z,17.12
2022-08-22T02:06:44.718Z,17.18
2022-08-22T02:09:30.711Z,17.20
2022-08-22T02:12:22.112Z,17.17
2022-08-22T02:15:20.613Z,17.11
2022-08-22T02:18:14.412Z,17.08
2022-08-22T02:21:05.070Z,17.06
2022-08-22T02:24:00.771Z,17.05
2022-08-22T02:26:51.333Z,17.05
2022-08-22T02:29:29.470Z,17.05
2022-08-22T02:32:05.859Z,17.02
2022-08-22T02:34:39.612Z,17.03
2022-08-22T02:37:17.879Z,16.99
2022-08-22T02:40:06.261Z,16.94
2022-08-22T02:42:48.965Z,16.92
2022-08-22T02:45:40.224Z,16.93
2022-08-22T02:48:21.794Z,16.91
2022-08-22T02:51:01.839Z,16.92
2022-08-22T02:53:55.238Z,16.95
2022-08-22T02:56:32.395Z,16.94
2022-08-22T02:59:27.049Z,16.96
2022-08-22T03:01:55.129Z,16.94
2022-08-22T03:04:30.692Z,16.90
2022-08-22T03:07:12.496Z,16.88
2022-08-22T03:09:49.915Z,16.88
2022-08-22T03:12:41.786Z,16.93
2022-08-22T03:15:30.524Z,16.93
2022-08-22T03:18:06.835Z,16.92
2022-08-22T03:20:44.446Z,16.93
2022-08-22T03:23:23.896Z,16.94
2022-08-22T03:26:01.301Z,16.97
2022-08-22T03:28:59.129Z,17.00
2022-08-22T03:31:28.989Z,17.02
2022-08-22T03:34:22.908Z,17.03
2022-08-22T03:37:02.545Z,17.03
2022-08-22T03:39:48.626Z,17.04
2022-08-22T03:42:27.176Z,17.06
2022-08-22T03:44:56.556Z,17.02
2022-08-22T03:48:10.206Z,16.98
2022-08-22T03:51:01.166Z,16.93
2022-08-22T03:53:45.941Z,16.93
2022-08-22T03:56:38.743Z,16.92
2022-08-22T03:59:10.194Z,16.90
2022-08-22T04:01:58.246Z,16.90
2022-08-22T04:05:00.625Z,16.91
2022-08-22T04:07:49.854Z,16.96
2022-08-22T04:10:56.454Z,16.94
2022-08-22T04:13:47.370Z,16.94
2022-08-22T04:16:41.161Z,16.94
2022-08-22T04:19:40.323Z,16.96
2022-08-22T04:22:25.524Z,16.99
2022-08-22T04:24:54.421Z,16.99
2022-08-22T04:27:30.080Z,17.01
2022-08-22T04:30:01.869Z,17.02
2022-08-22T04:32:44.238Z,17.00
2022-08-22T04:35:34.730Z,17.03
2022-08-22T04:38:10.329Z,17.03
2022-08-22T04:40:46.565Z,17.05
2022-08-22T04:43:30.501Z,17.05
2022-08-22T04:46:16.034Z,17.06
2022-08-22T04:48:56.945Z,17.04
2022-08-22T04:51:33.479Z,17.01
2022-08-22T04:54:32.553Z,16.99
2022-08-22T04:57:16.762Z,16.98
2022-08-22T04:59:43.368Z,16.99
2022-08-22T05:02:12.812Z,16.97
2022-08-22T05:04:46.808Z,16.97
2022-08-22T05:07:29.107Z,16.99
2022-08-22T05:10:12.005Z,17.04
2022-08-22T05:12:51.372Z,17.03
2022-08-22T05:15:33.367Z,17.03
2022-08-22T05:18:08.592Z,17.01
2022-08-22T05:20:39.264Z,17.02
2022-08-22T05:23:26.125Z,17.06
2022-08-22T05:25:56.875Z,17.09
2022-08-22T05:28:53.570Z,17.14
2022-08-22T05:31:28.879Z,17.15
2022-08-22T05:34:02.527Z,17.23
2022-08-22T05:36:35.130Z,17.26
2022-08-22T05:39:25.324Z,17.28
2022-08-22T05:41:54.393Z,17.29
2022-08-22T05:44:25.218Z,17.32
2022-08-22T05:47:01.651Z,17.36
2022-08-22T05:49:28.016Z,17.37
2022-08-22T05:52:31.807Z,17.36
2022-08-22T05:55:10.212Z,17.38
2022-08-22T05:57:42.169Z,17.38
2022-08-22T06:00:12.977Z,17.38
2022-08-22T06:03:01.095Z,17.37
2022-08-22T06:05:31.242Z,17.36
2022-08-22T06:08:13.782Z,17.41
2022-08-22T06:10:48.061Z,17.45
2022-08-22T06:13:41.515Z,17.46
2022-08-22T06:16:17.318Z,17.51
2022-08-22T06:18:45.844Z,17.56
2022-08-22T06:21:21.352Z,17.61
2022-08-22T06:24:13.608Z,17.64
2022-08-22T06:33:16.476Z,17.77
2022-08-22T06:37:47.321Z,17.79
2022-08-22T06:39:52.051Z,17.84
2022-08-22T06:42:37.770Z,17.89
2022-08-22T06:45:58.282Z,17.94
2022-08-22T06:48:25.269Z,18.02
2022-08-22T06:50:55.733Z,18.10
2022-08-22T06:53:32.713Z,18.09
2022-08-22T06:56:07.393Z,18.08
2022-08-22T06:58:38.660Z,18.13
2022-08-22T07:01:16.720Z,18.21
2022-08-22T07:03:50.705Z,18.24
2022-08-22T07:06:20.922Z,18.29
2022-08-22T07:08:52.937Z,18.35
2022-08-22T07:11:23.315Z,18.42
2022-08-22T07:14:03.704Z,18.43
2022-08-22T07:16:32.552Z,18.49
2022-08-22T07:18:59.573Z,18.56
2022-08-22T07:21:32.629Z,18.58
2022-08-22T07:24:03.135Z,18.65
2022-08-22T07:26:44.549Z,18.66
2022-08-22T07:29:38.625Z,18.75
2022-08-22T07:33:25.172Z,18.86
2022-08-22T07:36:09.009Z,18.91
2022-08-22T07:38:51.048Z,18.95
2022-08-22T07:41:42.476Z,19.08
2022-08-22T07:44:25.443Z,19.22
2022-08-22T07:47:10.098Z,19.25
2022-08-22T07:50:07.407Z,19.20
2022-08-22T07:52:48.820Z,19.32
2022-08-22T07:55:27.072Z,19.52
2022-08-22T07:58:05.070Z,19.65
2022-08-22T08:00:35.391Z,19.83
2022-08-22T08:03:08.857Z,19.90
2022-08-22T08:05:56.270Z,19.89
2022-08-22T08:08:37.778Z,19.98
2022-08-22T08:11:21.022Z,20.16
2022-08-22T08:14:01.579Z,20.33
2022-08-22T08:16:53.355Z,20.42
2022-08-22T08:19:42.168Z,20.58
2022-08-22T08:22:32.947Z,20.72
2022-08-22T08:25:13.995Z,20.82
2022-08-22T08:28:06.729Z,20.96
2022-08-22T08:31:07.738Z,21.02
2022-08-22T08:33:56.503Z,21.16
2022-08-22T08:36:41.271Z,21.33
2022-08-22T08:39:35.296Z,21.49
2022-08-22T08:43:00.790Z,21.58
2022-08-22T08:46:03.766Z,21.61
2022-08-22T08:49:06.418Z,21.74
2022-08-22T08:51:59.182Z,21.97
2022-08-22T08:54:57.946Z,22.12
2022-08-22T09:00:17.790Z,22.32
2022-08-22T09:02:48.675Z,22.38
2022-08-22T09:08:12.572Z,22.42
2022-08-22T09:11:14.369Z,22.58
2022-08-22T09:14:22.682Z,22.85
2022-08-22T09:17:11.395Z,23.00
2022-08-22T09:19:49.265Z,23.12
2022-08-22T09:22:27.310Z,23.21
2022-08-22T09:25:40.556Z,23.33
2022-08-22T09:28:24.474Z,23.47
2022-08-22T09:31:44.947Z,23.64
2022-08-22T09:34:25.665Z,23.85
2022-08-22T09:37:14.939Z,24.01
2022-08-22T09:39:49.569Z,24.19
2022-08-22T09:43:13.683Z,24.41
2022-08-22T09:45:55.686Z,24.44
2022-08-22T09:48:38.390Z,24.60
2022-08-22T09:51:33.289Z,24.78
2022-08-22T09:54:31.279Z,24.84
2022-08-22T09:57:01.763Z,24.90
2022-08-22T10:00:05.191Z,24.79
2022-08-22T10:02:55.453Z,24.59
2022-08-22T10:05:46.506Z,24.73
2022-08-22T10:08:55.661Z,24.77
2022-08-22T10:11:32.353Z,24.75
2022-08-22T10:14:09.106Z,24.92
2022-08-22T10:17:02.623Z,25.31
2022-08-22T10:20:10.562Z,25.39
2022-08-22T10:23:00.331Z,25.40
2022-08-22T10:25:49.875Z,25.31
2022-08-22T10:28:50.118Z,25.41
2022-08-22T10:32:00.083Z,25.57
2022-08-22T10:35:21.557Z,25.85
2022-08-22T10:57:28.950Z,27.20
2022-08-22T11:00:22.429Z,27.48
2022-08-22T11:03:03.981Z,27.44
2022-08-22T11:05:50.016Z,27.08
2022-08-22T11:08:47.638Z,27.05
2022-08-22T11:11:35.331Z,27.26
2022-08-22T11:14:13.713Z,27.26
2022-08-22T11:16:55.209Z,27.00
2022-08-22T11:19:34.141Z,27.07
2022-08-22T11:22:14.230Z,27.49
2022-08-22T11:24:56.388Z,27.80
2022-08-22T11:27:51.178Z,27.70
2022-08-22T11:31:03.703Z,27.46
2022-08-22T11:34:06.926Z,27.55
2022-08-22T11:37:02.991Z,27.48
2022-08-22T11:40:07.566Z,27.63
2022-08-22T11:43:05.974Z,27.74
2022-08-22T11:45:43.440Z,27.92
2022-08-22T11:48:39.652Z,28.15
2022-08-22T11:51:25.344Z,28.66
2022-08-22T11:54:31.080Z,28.95
2022-08-22T11:57:33.438Z,29.18
2022-08-22T12:00:23.969Z,29.45
2022-08-22T12:03:08.785Z,29.28
2022-08-22T12:05:44.045Z,29.48
2022-08-22T12:08:22.269Z,29.61
2022-08-22T12:11:26.574Z,29.45
2022-08-22T12:14:06.165Z,29.13
2022-08-22T12:17:02.246Z,29.07
2022-08-22T12:20:16.259Z,29.32
2022-08-22T12:23:08.648Z,29.39
2022-08-22T12:25:51.386Z,29.54
2022-08-22T12:28:31.660Z,29.82
2022-08-22T12:31:27.277Z,30.22
2022-08-22T12:34:20.811Z,30.41
2022-08-22T12:36:56.420Z,30.60
2022-08-22T12:39:41.753Z,30.47
2022-08-22T12:42:44.872Z,29.97
2022-08-22T12:45:50.862Z,29.78
2022-08-22T12:48:48.191Z,29.86
2022-08-22T12:51:23.783Z,30.01
2022-08-22T12:53:53.475Z,30.29
2022-08-22T12:56:56.945Z,29.92
2022-08-22T12:59:39.373Z,29.47
2022-08-22T13:02:26.806Z,29.15
2022-08-22T13:05:00.147Z,29.22
2022-08-22T13:07:34.005Z,29.02
2022-08-22T13:10:35.202Z,29.02
2022-08-22T13:13:12.192Z,29.66
2022-08-22T13:15:41.969Z,30.02
2022-08-22T13:18:29.209Z,30.07
2022-08-22T13:21:01.553Z,30.24
2022-08-22T13:23:39.614Z,30.42
2022-08-22T13:26:32.026Z,30.46
2022-08-22T13:29:26.738Z,30.20
2022-08-22T13:32:01.466Z,30.01
2022-08-22T13:34:40.536Z,30.10
2022-08-22T13:37:17.989Z,30.58
2022-08-22T13:39:56.128Z,31.12
2022-08-22T13:42:30.918Z,31.63
2022-08-22T13:45:02.265Z,31.97
2022-08-22T13:47:32.348Z,32.14
2022-08-22T13:50:35.789Z,31.60
2022-08-22T13:53:29.820Z,31.43
2022-08-22T13:56:05.492Z,31.84
2022-08-22T13:58:40.279Z,32.00
2022-08-22T14:01:19.553Z,32.56
2022-08-22T14:04:28.972Z,32.82
2022-08-22T14:07:03.705Z,33.14
2022-08-22T14:09:53.004Z,33.37
2022-08-22T14:12:28.679Z,33.14
2022-08-22T14:15:03.566Z,33.10
2022-08-22T14:17:42.363Z,32.52
2022-08-22T14:20:32.136Z,32.61
2022-08-22T14:23:07.900Z,32.49
2022-08-22T14:25:39.139Z,32.72
2022-08-22T14:28:21.276Z,33.04
2022-08-22T14:31:07.205Z,32.87
2022-08-22T14:33:39.731Z,32.43
2022-08-22T14:36:21.189Z,32.63
2022-08-22T14:38:56.386Z,32.95
2022-08-22T14:41:52.294Z,33.23
2022-08-22T14:44:52.257Z,33.70
2022-08-22T14:47:55.010Z,33.90
2022-08-22T14:51:08.560Z,33.69
2022-08-22T14:53:38.583Z,33.54
2022-08-22T14:56:28.137Z,33.91
2022-08-22T14:59:02.720Z,33.91
2022-08-22T15:01:33.299Z,33.62
2022-08-22T15:04:10.087Z,33.70
2022-08-22T15:06:48.174Z,33.62
2022-08-22T15:09:30.988Z,33.43
2022-08-22T15:11:58.210Z,33.41
2022-08-22T15:14:37.028Z,33.68
2022-08-22T15:17:08.437Z,33.86
2022-08-22T15:19:42.435Z,33.92
2022-08-22T15:22:27.911Z,34.06
2022-08-22T15:25:12.338Z,34.47
2022-08-22T15:28:20.439Z,34.33
2022-08-22T15:31:03.442Z,34.53
2022-08-22T15:33:32.464Z,34.40
2022-08-22T15:36:12.099Z,34.51
2022-08-22T15:38:48.642Z,34.65
2022-08-22T15:41:36.982Z,34.18
2022-08-22T15:44:14.872Z,33.28
2022-08-22T15:47:02.971Z,33.16
2022-08-22T15:49:38.957Z,33.17
2022-08-22T15:52:19.478Z,32.89
2022-08-22T15:54:55.061Z,33.19
2022-08-22T15:57:50.952Z,33.21
2022-08-22T16:00:27.855Z,33.26
2022-08-22T16:02:57.360Z,33.21
2022-08-22T16:05:51.891Z,33.47
2022-08-22T16:08:27.885Z,33.48
2022-08-22T16:11:02.006Z,33.95
2022-08-22T16:13:31.758Z,34.38
2022-08-22T16:16:45.485Z,34.31
2022-08-22T16:19:25.287Z,33.67
2022-08-22T16:21:51.724Z,33.57
2022-08-22T16:24:18.172Z,34.13
2022-08-22T16:26:45.912Z,34.41
2022-08-22T16:29:17.549Z,35.02
2022-08-22T16:31:44.645Z,35.41
2022-08-22T16:34:17.467Z,35.58
2022-08-22T16:36:51.856Z,35.82
2022-08-22T16:39:21.471Z,35.86
2022-08-22T16:42:15.964Z,35.37
2022-08-22T16:44:46.801Z,34.73
2022-08-22T16:47:17.767Z,33.80
2022-08-22T16:49:50.306Z,34.63
2022-08-22T16:52:28.951Z,35.05
2022-08-22T16:55:06.369Z,35.19
2022-08-22T16:58:12.209Z,35.59
2022-08-22T17:01:06.276Z,35.42
2022-08-22T17:03:32.792Z,35.45
2022-08-22T17:06:36.704Z,35.30
2022-08-22T17:09:25.974Z,34.88
2022-08-22T17:12:06.913Z,34.14
2022-08-22T17:15:07.278Z,33.40
2022-08-22T17:18:11.682Z,32.50
2022-08-22T17:21:11.634Z,32.00
2022-08-22T17:24:10.272Z,31.61
2022-08-22T17:27:07.367Z,30.99
2022-08-22T17:29:56.928Z,30.42
2022-08-22T17:32:32.559Z,29.79
2022-08-22T17:35:20.702Z,29.57
2022-08-22T17:38:00.823Z,29.53
2022-08-22T17:40:37.328Z,29.50
2022-08-22T17:43:33.665Z,29.24
2022-08-22T17:46:35.891Z,29.04
2022-08-22T17:49:40.742Z,28.75
2022-08-22T17:52:35.728Z,28.48
2022-08-22T17:55:05.555Z,28.40
2022-08-22T17:57:50.495Z,28.11
2022-08-22T18:00:39.172Z,27.83
2022-08-22T18:03:08.757Z,27.59
2022-08-22T18:06:09.889Z,27.45
2022-08-22T18:09:15.240Z,27.16
2022-08-22T18:11:52.015Z,26.95
2022-08-22T18:14:33.271Z,26.75
2022-08-22T18:17:42.597Z,26.61
2022-08-22T18:20:17.569Z,26.45
2022-08-22T18:22:54.027Z,26.27
2022-08-22T18:25:20.535Z,26.08
2022-08-22T18:28:25.514Z,25.91
2022-08-22T18:31:02.056Z,25.82
2022-08-22T18:33:33.204Z,25.78
2022-08-22T18:36:30.257Z,25.58
2022-08-22T18:39:06.922Z,25.36
2022-08-22T18:42:07.363Z,25.16
2022-08-22T18:44:36.824Z,25.01
2022-08-22T18:47:35.164Z,24.94
2022-08-22T18:50:41.830Z,24.81
2022-08-22T18:53:38.358Z,24.71
2022-08-22T18:56:50.364Z,24.59
2022-08-22T18:59:59.259Z,24.44
2022-08-22T19:02:55.656Z,24.15
2022-08-22T19:05:37.869Z,23.91
2022-08-22T19:08:35.440Z,23.70
2022-08-22T19:11:12.829Z,23.61
2022-08-22T19:13:42.196Z,23.56
2022-08-22T19:16:26.365Z,23.39
2022-08-22T19:19:17.124Z,23.22
2022-08-22T19:22:19.374Z,23.06
2022-08-22T19:25:15.350Z,22.88
2022-08-22T19:28:11.641Z,22.79
2022-08-22T19:30:44.266Z,22.65
2022-08-22T19:33:19.638Z,22.54
2022-08-22T19:36:35.217Z,22.44
2022-08-22T19:39:04.480Z,22.29
2022-08-22T19:41:46.285Z,22.28
2022-08-22T19:44:37.634Z,22.26
2022-08-22T19:47:50.463Z,22.12
2022-08-22T19:50:16.935Z,22.02
2022-08-22T19:52:56.499Z,21.91
2022-08-22T19:55:38.179Z,21.73
2022-08-22T19:58:33.047Z,21.57
2022-08-22T20:01:37.392Z,21.46
2022-08-22T20:04:22.814Z,21.36
2022-08-22T20:07:02.162Z,21.25
2022-08-22T20:09:46.187Z,21.18
2022-08-22T20:12:16.101Z,21.11
2022-08-22T20:14:45.646Z,21.08
2022-08-22T20:17:42.182Z,21.01
2022-08-22T20:20:38.248Z,20.93
2022-08-22T20:23:25.150Z,20.91
2022-08-22T20:25:57.118Z,20.87
2022-08-22T20:28:29.623Z,20.88
2022-08-22T20:31:03.423Z,20.82
2022-08-22T20:33:34.922Z,20.79
2022-08-22T20:36:21.188Z,20.75
2022-08-22T20:38:58.628Z,20.64
2022-08-22T20:41:35.618Z,20.54
2022-08-22T20:44:15.932Z,20.46
2022-08-22T20:47:24.377Z,20.29
2022-08-22T20:49:57.581Z,20.24
2022-08-22T20:52:28.538Z,20.22
2022-08-22T20:55:17.794Z,20.21
2022-08-22T20:58:02.645Z,20.22
2022-08-22T21:00:44.302Z,20.17
2022-08-22T21:03:32.535Z,20.13
2022-08-22T21:06:43.288Z,20.11
2022-08-22T21:09:46.993Z,20.11
2022-08-22T21:12:14.118Z,20.10
2022-08-22T21:14:47.167Z,20.02
2022-08-22T21:17:33.677Z,19.89
2022-08-22T21:20:21.395Z,19.78
2022-08-22T21:22:48.439Z,19.76
2022-08-22T21:25:15.033Z,19.77
2022-08-22T21:27:47.785Z,19.67
2022-08-22T21:30:22.858Z,19.71
2022-08-22T21:32:55.531Z,19.73
2022-08-22T21:35:29.942Z,19.71
2022-08-22T21:37:58.068Z,19.68
2022-08-22T21:40:37.067Z,19.65
2022-08-22T21:43:10.571Z,19.68
2022-08-22T21:45:43.358Z,19.67
2022-08-22T21:48:40.676Z,19.65
2022-08-22T21:51:23.650Z,19.68
2022-08-22T21:54:03.698Z,19.64
2022-08-22T21:56:37.283Z,19.67
2022-08-22T21:59:26.692Z,19.61
2022-08-22T22:02:28.456Z,19.59
2022-08-22T22:04:56.281Z,19.56
2022-08-22T22:07:24.124Z,19.54
2022-08-22T22:09:54.650Z,19.51
2022-08-22T22:12:22.942Z,19.46
2022-08-22T22:14:50.104Z,19.38
2022-08-22T22:17:19.068Z,19.38
2022-08-22T22:19:46.491Z,19.39
2022-08-22T22:22:13.368Z,19.36
2022-08-22T22:24:39.969Z,19.30
2022-08-22T22:27:07.296Z,19.27
2022-08-22T22:29:34.750Z,19.31
2022-08-22T22:32:01.683Z,19.24
2022-08-22T22:34:28.203Z,19.14
2022-08-22T22:37:22.831Z,19.03
2022-08-22T22:39:49.636Z,19.03
2022-08-22T22:42:16.140Z,19.04
2022-08-22T22:44:47.442Z,19.05
2022-08-22T22:47:29.532Z,18.96
2022-08-22T22:49:56.644Z,18.86
2022-08-22T22:52:24.614Z,18.90
2022-08-22T22:54:52.585Z,18.91
2022-08-22T22:57:42.568Z,18.91
2022-08-22T23:00:12.959Z,18.90
2022-08-22T23:02:40.747Z,18.86
2022-08-22T23:05:09.390Z,18.83
2022-08-22T23:07:37.950Z,18.80
2022-08-22T23:10:07.094Z,18.70
2022-08-22T23:12:35.738Z,18.64
2022-08-22T23:15:02.798Z,18.60
2022-08-22T23:18:06.237Z,18.67
2022-08-22T23:20:33.057Z,18.68
2022-08-22T23:22:59.883Z,18.66
2022-08-22T23:25:26.898Z,18.65
2022-08-22T23:27:53.953Z,18.65
2022-08-22T23:30:21.696Z,18.68
2022-08-22T23:32:48.340Z,18.68
2022-08-22T23:35:14.843Z,18.67
2022-08-22T23:37:41.553Z,18.67
2022-08-22T23:40:09.640Z,18.64
2022-08-22T23:42:36.223Z,18.72
2022-08-22T23:45:03.405Z,18.72
2022-08-22T23:47:30.163Z,18.69
2022-08-22T23:49:56.730Z,18.65
2022-08-22T23:52:23.239Z,18.67
2022-08-22T23:54:54.276Z,18.59
2022-08-22T23:57:26.560Z,18.52
2022-08-22T23:59:57.608Z,18.46
